createdAt,value
2018-11-20T00:02:33.143Z,67.64
2018-11-20T00:06:16.929Z,67.38
2018-11-20T00:10:00.578Z,67.30
2018-11-20T00:13:36.204Z,67.61
2018-11-20T00:17:19.876Z,67.76
2018-11-20T00:21:06.524Z,67.53
2018-11-20T00:24:50.249Z,67.53
2018-11-20T00:28:33.964Z,67.39
2018-11-20T00:32:17.661Z,67.58
2018-11-20T00:36:01.280Z,67.64
2018-11-20T00:39:44.908Z,67.38
2018-11-20T00:43:28.576Z,67.47
2018-11-20T00:47:12.258Z,67.06
2018-11-20T00:50:55.959Z,67.10
2018-11-20T00:54:39.576Z,66.90
2018-11-20T00:58:16.709Z,67.14
2018-11-20T01:02:00.364Z,66.96
2018-11-20T01:05:43.990Z,66.91
2018-11-20T01:09:05.886Z,66.92
2018-11-20T01:12:49.552Z,67.16
2018-11-20T01:16:33.255Z,67.08
2018-11-20T01:20:16.817Z,66.62
2018-11-20T01:24:00.478Z,66.89
2018-11-20T01:27:44.183Z,66.40
2018-11-20T01:31:27.889Z,66.97
2018-11-20T01:35:11.564Z,66.80
2018-11-20T01:38:55.288Z,66.50
2018-11-20T01:42:38.925Z,66.58
2018-11-20T01:46:22.902Z,67.18
2018-11-20T01:50:06.529Z,66.68
2018-11-20T01:53:50.240Z,66.87
2018-11-20T01:57:33.960Z,67.00
2018-11-20T02:01:17.582Z,66.90
2018-11-20T02:05:01.173Z,66.77
2018-11-20T02:08:44.847Z,66.50
2018-11-20T02:12:28.561Z,66.40
2018-11-20T02:16:12.231Z,66.45
2018-11-20T02:19:55.893Z,66.75
2018-11-20T02:23:39.617Z,66.76
2018-11-20T02:27:23.325Z,67.27
2018-11-20T02:31:07.010Z,66.86
2018-11-20T02:34:50.607Z,66.88
2018-11-20T02:38:34.232Z,66.56
2018-11-20T02:42:18.000Z,67.12
2018-11-20T02:46:01.676Z,66.68
2018-11-20T02:49:45.348Z,66.68
2018-11-20T02:53:29.058Z,67.18
2018-11-20T02:57:12.693Z,66.95
2018-11-20T03:00:56.414Z,66.81
2018-11-20T03:04:40.062Z,67.08
2018-11-20T03:08:23.739Z,67.34
2018-11-20T03:12:07.379Z,66.99
2018-11-20T03:15:51.168Z,67.18
2018-11-20T03:19:34.700Z,67.19
2018-11-20T03:23:18.356Z,67.03
2018-11-20T03:26:55.504Z,67.13
2018-11-20T03:31:19.668Z,66.98
2018-11-20T03:35:03.345Z,67.28
2018-11-20T03:38:47.019Z,67.30
2018-11-20T03:42:30.662Z,67.42
2018-11-20T03:46:14.360Z,66.83
2018-11-20T03:49:58.034Z,66.92
2018-11-20T03:53:41.711Z,67.15
2018-11-20T03:57:25.343Z,67.14
2018-11-20T04:01:09.031Z,67.13
2018-11-20T04:04:52.593Z,67.31
2018-11-20T04:08:36.313Z,67.62
2018-11-20T04:12:19.969Z,66.98
2018-11-20T04:16:03.636Z,66.79
2018-11-20T04:19:47.314Z,66.75
2018-11-20T04:23:20.373Z,66.77
2018-11-20T04:27:04.037Z,67.26
2018-11-20T04:31:25.545Z,66.58
2018-11-20T04:35:28.799Z,66.87
2018-11-20T04:39:05.338Z,67.11
2018-11-20T04:42:48.983Z,67.43
2018-11-20T04:46:32.833Z,66.72
2018-11-20T04:50:04.445Z,66.92
2018-11-20T04:53:48.025Z,67.28
2018-11-20T04:57:31.705Z,67.56
2018-11-20T05:01:15.348Z,66.89
2018-11-20T05:04:58.963Z,66.96
2018-11-20T05:08:42.629Z,66.95
2018-11-20T05:12:26.299Z,67.37
2018-11-20T05:16:10.185Z,67.30
2018-11-20T05:19:53.861Z,67.42
2018-11-20T05:23:37.489Z,67.37
2018-11-20T05:27:21.193Z,68.04
2018-11-20T05:31:04.872Z,68.39
2018-11-20T05:34:48.442Z,68.66
2018-11-20T05:38:32.144Z,68.23
2018-11-20T05:42:15.790Z,68.17
2018-11-20T05:45:59.476Z,68.12
2018-11-20T05:49:43.180Z,67.96
2018-11-20T05:53:26.769Z,67.98
2018-11-20T05:57:10.384Z,68.32
2018-11-20T06:00:54.035Z,68.23
2018-11-20T06:04:37.722Z,68.31
2018-11-20T06:08:09.937Z,68.15
2018-11-20T06:11:53.556Z,68.75
2018-11-20T06:15:37.229Z,68.69
2018-11-20T06:19:20.866Z,68.49
2018-11-20T06:23:04.510Z,68.76
2018-11-20T06:26:48.195Z,68.48
2018-11-20T06:30:31.862Z,68.32
2018-11-20T06:34:13.681Z,68.93
2018-11-20T06:37:57.344Z,68.27
2018-11-20T06:41:40.994Z,68.02
2018-11-20T06:45:24.767Z,68.50
2018-11-20T06:49:08.428Z,68.53
2018-11-20T06:52:52.218Z,68.49
2018-11-20T06:56:35.882Z,68.76
2018-11-20T07:00:19.478Z,68.56
2018-11-20T07:04:03.184Z,68.44
2018-11-20T07:07:46.933Z,68.57
2018-11-20T07:11:20.509Z,68.20
2018-11-20T07:15:04.231Z,68.79
2018-11-20T07:18:47.801Z,68.47
2018-11-20T07:22:31.543Z,68.71
2018-11-20T07:26:15.111Z,68.51
2018-11-20T07:29:58.758Z,68.44
2018-11-20T07:33:42.413Z,68.29
2018-11-20T07:37:26.369Z,68.01
2018-11-20T07:41:09.854Z,68.92
2018-11-20T07:44:53.460Z,68.07
2018-11-20T07:48:37.218Z,68.49
2018-11-20T07:52:20.933Z,67.99
2018-11-20T07:56:04.744Z,68.03
2018-11-20T07:59:48.247Z,68.48
2018-11-20T08:03:31.850Z,67.63
2018-11-20T08:07:15.563Z,67.34
2018-11-20T08:10:59.222Z,67.87
2018-11-20T08:14:42.929Z,68.01
2018-11-20T08:18:26.609Z,67.84
2018-11-20T08:22:10.301Z,68.27
2018-11-20T08:25:54.184Z,68.02
2018-11-20T08:29:26.860Z,68.25
2018-11-20T08:33:10.542Z,67.86
2018-11-20T08:36:54.156Z,67.17
2018-11-20T08:40:37.870Z,67.25
2018-11-20T08:44:21.541Z,67.31
2018-11-20T08:48:05.093Z,66.82
2018-11-20T08:51:48.743Z,66.87
2018-11-20T08:55:32.371Z,67.00
2018-11-20T08:59:16.010Z,66.80
2018-11-20T09:02:59.710Z,67.06
2018-11-20T09:06:43.313Z,67.23
2018-11-20T09:10:27.003Z,68.07
2018-11-20T09:14:10.577Z,67.53
2018-11-20T09:17:54.269Z,67.63
2018-11-20T09:21:37.878Z,67.59
2018-11-20T09:25:21.560Z,67.46
2018-11-20T09:29:05.157Z,67.36
2018-11-20T09:32:41.640Z,67.55
2018-11-20T09:36:25.286Z,67.04
2018-11-20T09:40:49.579Z,67.39
2018-11-20T09:45:11.095Z,67.47
2018-11-20T09:48:54.739Z,67.80
2018-11-20T09:52:38.901Z,68.10
2018-11-20T09:56:22.574Z,67.73
2018-11-20T10:00:06.237Z,68.28
2018-11-20T10:03:49.935Z,68.70
2018-11-20T10:07:33.553Z,68.75
2018-11-20T10:11:17.190Z,68.37
2018-11-20T10:15:00.967Z,68.82
2018-11-20T10:18:44.471Z,69.13
2018-11-20T10:22:28.182Z,67.90
2018-11-20T10:26:09.567Z,68.57
2018-11-20T10:29:53.110Z,68.89
2018-11-20T10:33:36.816Z,68.98
2018-11-20T10:37:18.137Z,69.25
2018-11-20T10:41:01.795Z,69.32
2018-11-20T10:44:45.463Z,70.12
2018-11-20T10:48:29.149Z,71.41
2018-11-20T10:56:05.664Z,75.22
2018-11-20T10:59:49.394Z,77.47
2018-11-20T11:03:33.048Z,79.34
2018-11-20T11:07:17.241Z,80.34
2018-11-20T11:11:00.860Z,81.46
2018-11-20T11:14:44.516Z,82.36
2018-11-20T11:18:28.332Z,83.28
2018-11-20T11:22:11.769Z,83.46
2018-11-20T11:25:55.461Z,83.69
2018-11-20T11:29:39.138Z,84.41
2018-11-20T11:33:24.267Z,84.17
2018-11-20T11:37:04.606Z,84.97
2018-11-20T11:40:48.592Z,84.69
2018-11-20T11:44:24.033Z,84.65
2018-11-20T11:48:07.739Z,86.19
2018-11-20T11:51:51.429Z,85.67
2018-11-20T11:55:35.118Z,86.45
2018-11-20T11:59:18.836Z,86.79
2018-11-20T12:10:36.307Z,86.67
2018-11-20T12:13:59.116Z,87.62
2018-11-20T12:17:42.934Z,87.43
2018-11-20T12:21:26.531Z,86.71
2018-11-20T12:25:03.816Z,87.52
2018-11-20T12:28:47.523Z,87.13
2018-11-20T12:32:31.193Z,87.05
2018-11-20T12:36:14.853Z,86.73
2018-11-20T12:39:58.472Z,86.87
2018-11-20T12:47:15.065Z,86.34
2018-11-20T12:50:56.635Z,85.58
2018-11-20T12:54:40.384Z,85.13
2018-11-20T12:58:24.286Z,86.58
2018-11-20T13:02:07.974Z,86.79
2018-11-20T13:05:51.619Z,87.45
2018-11-20T13:09:35.588Z,86.88
2018-11-20T13:13:13.140Z,87.68
2018-11-20T13:16:56.886Z,85.77
2018-11-20T13:20:40.473Z,86.95
2018-11-20T13:24:24.284Z,87.50
2018-11-20T13:28:07.905Z,86.91
2018-11-20T13:31:51.732Z,85.86
2018-11-20T13:35:35.359Z,85.07
2018-11-20T13:39:19.072Z,85.83
2018-11-20T13:43:04.380Z,85.57
2018-11-20T13:46:48.058Z,85.44
2018-11-20T13:54:24.467Z,84.82
2018-11-20T13:58:08.041Z,85.33
2018-11-20T14:01:44.668Z,85.69
2018-11-20T14:05:28.324Z,84.89
2018-11-20T14:09:12.015Z,84.92
2018-11-20T14:12:55.819Z,84.51
2018-11-20T14:16:42.048Z,84.14
2018-11-20T14:20:25.717Z,84.79
2018-11-20T14:24:09.415Z,84.30
2018-11-20T14:28:23.047Z,85.37
2018-11-20T14:32:09.065Z,85.04
2018-11-20T14:35:54.570Z,85.71
2018-11-20T14:39:37.462Z,85.62
2018-11-20T14:43:20.278Z,84.74
2018-11-20T14:47:03.180Z,85.49
2018-11-20T14:50:45.960Z,84.92
2018-11-20T14:54:28.819Z,85.98
2018-11-20T14:58:11.621Z,84.87
2018-11-20T15:01:54.501Z,85.33
2018-11-20T15:05:37.389Z,85.74
2018-11-20T15:09:20.211Z,85.58
2018-11-20T15:13:03.242Z,85.68
2018-11-20T15:16:46.100Z,85.82
2018-11-20T15:20:28.933Z,85.03
2018-11-20T15:23:59.547Z,85.27
2018-11-20T15:27:42.353Z,84.91
2018-11-20T15:31:25.202Z,84.94
2018-11-20T15:35:08.060Z,85.35
2018-11-20T15:38:50.955Z,85.95
2018-11-20T15:42:22.376Z,85.66
2018-11-20T15:46:05.308Z,85.51
2018-11-20T15:49:48.145Z,86.17
2018-11-20T15:53:31.009Z,85.74
2018-11-20T15:57:13.810Z,85.02
2018-11-20T16:00:56.765Z,85.10
2018-11-20T16:04:39.624Z,86.48
2018-11-20T16:08:22.430Z,85.29
2018-11-20T16:12:05.360Z,85.61
2018-11-20T16:15:48.213Z,86.83
2018-11-20T16:19:20.546Z,87.03
2018-11-20T16:23:03.550Z,86.07
2018-11-20T16:26:46.335Z,86.48
2018-11-20T16:30:30.553Z,86.57
2018-11-20T16:34:13.441Z,86.44
2018-11-20T16:37:58.186Z,85.94
2018-11-20T16:41:42.308Z,86.54
2018-11-20T16:45:24.315Z,86.37
2018-11-20T16:49:07.186Z,86.59
2018-11-20T16:52:50.008Z,86.34
2018-11-20T16:56:32.905Z,86.51
2018-11-20T17:00:15.749Z,85.33
2018-11-20T17:03:58.576Z,85.88
2018-11-20T17:07:41.480Z,84.89
2018-11-20T17:11:24.430Z,85.28
2018-11-20T17:15:07.315Z,85.59
2018-11-20T17:18:50.137Z,85.39
2018-11-20T17:22:32.987Z,84.43
2018-11-20T17:26:15.822Z,85.06
2018-11-20T17:29:58.671Z,84.92
2018-11-20T17:33:41.476Z,84.47
2018-11-20T17:37:24.301Z,84.31
2018-11-20T17:41:07.191Z,84.41
2018-11-20T17:44:53.575Z,84.64
2018-11-20T17:48:32.893Z,83.36
2018-11-20T17:52:15.725Z,84.15
2018-11-20T17:55:58.648Z,83.92
2018-11-20T17:59:41.488Z,84.58
2018-11-20T18:03:24.590Z,83.14
2018-11-20T18:07:07.490Z,83.40
2018-11-20T18:10:50.366Z,82.20
2018-11-20T18:14:33.205Z,82.49
2018-11-20T18:18:16.084Z,83.49
2018-11-20T18:21:58.907Z,82.48
2018-11-20T18:25:41.742Z,82.52
2018-11-20T18:29:24.595Z,82.41
2018-11-20T18:33:07.443Z,83.14
2018-11-20T18:36:50.296Z,82.27
2018-11-20T18:40:33.148Z,83.46
2018-11-20T18:44:16.034Z,84.09
2018-11-20T18:47:58.857Z,84.05
2018-11-20T18:51:30.974Z,82.95
2018-11-20T18:55:13.864Z,82.86
2018-11-20T18:58:54.143Z,83.58
2018-11-20T19:02:37.023Z,83.19
2018-11-20T19:06:19.874Z,81.61
2018-11-20T19:10:02.734Z,82.46
2018-11-20T19:13:45.617Z,82.33
2018-11-20T19:17:28.463Z,82.05
2018-11-20T19:21:11.307Z,82.92
2018-11-20T19:24:54.212Z,82.21
2018-11-20T19:28:37.067Z,82.12
2018-11-20T19:32:19.947Z,81.97
2018-11-20T19:36:02.853Z,81.83
2018-11-20T19:39:48.126Z,81.63
2018-11-20T19:43:30.984Z,81.94
2018-11-20T19:47:13.838Z,81.26
2018-11-20T19:50:57.967Z,81.28
2018-11-20T19:54:39.636Z,81.17
2018-11-20T19:58:17.600Z,80.72
2018-11-20T20:02:00.422Z,81.24
2018-11-20T20:05:43.252Z,81.83
2018-11-20T20:09:29.273Z,81.59
2018-11-20T20:13:12.200Z,80.86
2018-11-20T20:16:55.034Z,81.72
2018-11-20T20:20:38.295Z,80.98
2018-11-20T20:24:08.369Z,80.81
2018-11-20T20:27:51.325Z,80.81
2018-11-20T20:31:34.224Z,81.04
2018-11-20T20:35:17.126Z,81.18
2018-11-20T20:38:59.956Z,80.88
2018-11-20T20:42:42.847Z,81.29
2018-11-20T20:46:25.686Z,80.85
2018-11-20T20:50:06.980Z,81.55
2018-11-20T20:53:49.982Z,81.12
2018-11-20T20:57:32.819Z,81.47
2018-11-20T21:01:15.682Z,80.85
2018-11-20T21:05:00.086Z,82.16
2018-11-20T21:08:45.247Z,82.35
2018-11-20T21:12:25.842Z,83.29
2018-11-20T21:15:59.171Z,83.84
2018-11-20T21:19:41.992Z,84.64
2018-11-20T21:23:25.365Z,85.44
2018-11-20T21:27:08.282Z,85.63
2018-11-20T21:30:51.140Z,86.33
2018-11-20T21:34:33.987Z,86.84
2018-11-20T21:38:16.863Z,86.92
2018-11-20T21:41:59.776Z,87.44
2018-11-20T21:45:42.629Z,88.36
2018-11-20T21:49:25.437Z,89.01
2018-11-20T21:53:00.070Z,89.59
2018-11-20T21:56:42.189Z,88.60
2018-11-20T22:00:30.775Z,89.16
2018-11-20T22:04:13.655Z,89.56
2018-11-20T22:07:56.543Z,90.14
2018-11-20T22:11:39.410Z,89.48
2018-11-20T22:15:22.241Z,89.68
2018-11-20T22:19:05.123Z,90.07
2018-11-20T22:22:47.950Z,90.41
2018-11-20T22:26:31.605Z,90.31
2018-11-20T22:30:05.970Z,90.07
2018-11-20T22:33:48.929Z,89.68
2018-11-20T22:37:31.925Z,90.21
2018-11-20T22:41:14.804Z,91.11
2018-11-20T22:44:57.689Z,91.41
2018-11-20T22:48:40.527Z,91.37
2018-11-20T22:52:23.429Z,92.05
2018-11-20T22:56:06.240Z,92.39
2018-11-20T22:59:49.197Z,92.93
2018-11-20T23:03:24.063Z,92.88
2018-11-20T23:07:06.922Z,93.25
2018-11-20T23:10:31.220Z,93.57
2018-11-20T23:13:55.110Z,94.05
2018-11-20T23:17:19.003Z,94.21
2018-11-20T23:20:42.961Z,94.45
2018-11-20T23:24:06.860Z,94.39
2018-11-20T23:27:31.186Z,93.96
2018-11-20T23:30:55.100Z,93.49
2018-11-20T23:34:19.053Z,93.62
2018-11-20T23:37:43.414Z,93.29
2018-11-20T23:41:07.323Z,93.22
2018-11-20T23:44:31.216Z,93.38
2018-11-20T23:47:55.139Z,92.98
2018-11-20T23:51:19.058Z,91.77
2018-11-20T23:54:42.972Z,91.14
2018-11-20T23:58:06.972Z,91.77
